createdAt,value
2023-02-18T00:01:31.083Z,19.47
2023-02-18T00:03:59.726Z,20.40
2023-02-18T00:06:28.775Z,19.17
2023-02-18T00:08:59.011Z,21.07
2023-02-18T00:11:28.896Z,21.23
2023-02-18T00:14:01.502Z,19.90
2023-02-18T00:16:30.240Z,21.57
2023-02-18T00:18:58.798Z,22.33
2023-02-18T00:21:27.340Z,21.37
2023-02-18T00:23:55.846Z,22.67
2023-02-18T00:26:24.592Z,22.07
2023-02-18T00:28:54.511Z,22.70
2023-02-18T00:31:24.066Z,24.03
2023-02-18T00:33:58.744Z,22.43
2023-02-18T00:36:27.330Z,23.07
2023-02-18T00:38:56.531Z,23.77
2023-02-18T00:41:26.194Z,23.67
2023-02-18T00:43:56.127Z,23.83
2023-02-18T00:46:24.660Z,23.60
2023-02-18T00:48:53.828Z,22.77
2023-02-18T00:51:22.354Z,24.50
2023-02-18T00:53:51.058Z,23.97
2023-02-18T00:56:19.595Z,23.33
2023-02-18T00:58:48.017Z,23.10
2023-02-18T01:01:17.996Z,23.83
2023-02-18T01:03:46.678Z,21.53
2023-02-18T01:06:15.110Z,21.30
2023-02-18T01:08:43.692Z,20.07
2023-02-18T01:11:12.185Z,20.23
2023-02-18T01:13:40.713Z,19.47
2023-02-18T01:16:09.614Z,20.00
2023-02-18T01:18:39.918Z,18.90
2023-02-18T01:21:08.903Z,19.80
2023-02-18T01:23:37.451Z,19.13
2023-02-18T01:26:06.239Z,19.17
2023-02-18T01:28:35.075Z,20.43
2023-02-18T01:31:06.683Z,19.70
2023-02-18T01:33:35.303Z,20.77
2023-02-18T01:36:05.612Z,20.97
2023-02-18T01:38:34.099Z,20.20
2023-02-18T01:41:02.651Z,20.90
2023-02-18T01:43:31.396Z,21.70
2023-02-18T01:46:01.620Z,21.50
2023-02-18T01:48:31.715Z,22.37
2023-02-18T01:51:02.573Z,20.60
2023-02-18T01:53:33.085Z,22.00
2023-02-18T01:56:01.752Z,21.83
2023-02-18T01:58:30.576Z,22.37
2023-02-18T02:00:59.103Z,20.20
2023-02-18T02:03:27.576Z,20.63
2023-02-18T02:05:55.991Z,20.37
2023-02-18T02:08:24.436Z,20.43
2023-02-18T02:10:58.952Z,19.10
2023-02-18T02:13:42.571Z,19.67
2023-02-18T02:16:12.495Z,20.83
2023-02-18T02:18:47.898Z,20.40
2023-02-18T02:21:40.452Z,21.07
2023-02-18T02:24:27.758Z,19.97
2023-02-18T02:27:09.208Z,20.53
2023-02-18T02:29:52.507Z,20.00
2023-02-18T02:32:32.051Z,20.17
2023-02-18T02:35:01.924Z,21.13
2023-02-18T02:37:32.445Z,18.33
2023-02-18T02:40:04.310Z,17.60
2023-02-18T02:42:36.051Z,19.33
2023-02-18T02:45:06.368Z,17.63
2023-02-18T02:47:35.029Z,15.60
2023-02-18T02:50:05.766Z,15.60
2023-02-18T02:52:34.587Z,15.50
2023-02-18T02:55:03.083Z,14.10
2023-02-18T02:57:44.792Z,15.43
2023-02-18T03:00:13.592Z,14.97
2023-02-18T03:02:43.229Z,13.27
2023-02-18T03:05:16.409Z,14.53
2023-02-18T03:07:49.294Z,14.00
2023-02-18T03:10:19.702Z,14.70
2023-02-18T03:12:49.272Z,15.77
2023-02-18T03:15:20.108Z,17.07
2023-02-18T03:17:50.232Z,17.43
2023-02-18T03:20:21.073Z,16.63
2023-02-18T03:22:49.855Z,17.03
2023-02-18T03:25:18.445Z,14.30
2023-02-18T03:27:48.144Z,12.73
2023-02-18T03:30:17.753Z,13.83
2023-02-18T03:32:46.370Z,13.97
2023-02-18T03:35:15.402Z,13.00
2023-02-18T03:37:45.797Z,11.43
2023-02-18T03:40:14.371Z,10.83
2023-02-18T03:42:43.051Z,10.97
2023-02-18T03:45:11.504Z,11.13
2023-02-18T03:47:39.972Z,11.50
2023-02-18T03:50:09.234Z,12.23
2023-02-18T03:52:37.923Z,12.20
2023-02-18T03:55:09.332Z,12.47
2023-02-18T03:57:37.796Z,12.30
2023-02-18T04:00:06.909Z,13.47
2023-02-18T04:02:35.406Z,14.20
2023-02-18T04:05:03.857Z,13.40
2023-02-18T04:07:32.348Z,14.33
2023-02-18T04:10:00.814Z,12.97
2023-02-18T04:12:30.584Z,14.30
2023-02-18T04:14:59.002Z,14.40
2023-02-18T04:17:27.595Z,13.37
2023-02-18T04:19:56.029Z,13.47
2023-02-18T04:22:24.556Z,14.20
2023-02-18T04:24:53.184Z,15.90
2023-02-18T04:27:21.530Z,13.20
2023-02-18T04:29:51.601Z,14.37
2023-02-18T04:32:20.084Z,14.40
2023-02-18T04:34:48.772Z,14.00
2023-02-18T04:37:17.418Z,13.53
2023-02-18T04:39:45.930Z,13.13
2023-02-18T04:42:14.460Z,13.57
2023-02-18T04:44:43.157Z,13.70
2023-02-18T04:47:13.054Z,14.40
2023-02-18T04:49:41.612Z,13.80
2023-02-18T04:52:10.109Z,13.10
2023-02-18T04:54:38.857Z,12.83
2023-02-18T04:57:07.401Z,13.60
2023-02-18T04:59:35.782Z,12.70
2023-02-18T05:02:04.287Z,12.53
2023-02-18T05:04:34.105Z,12.50
2023-02-18T05:07:02.737Z,12.50
2023-02-18T05:09:31.241Z,12.57
2023-02-18T05:11:59.801Z,12.10
2023-02-18T05:14:28.276Z,11.30
2023-02-18T05:16:56.711Z,11.30
2023-02-18T05:19:25.164Z,12.57
2023-02-18T05:21:55.076Z,12.07
2023-02-18T05:24:23.591Z,12.27
2023-02-18T05:26:52.010Z,11.80
2023-02-18T05:29:20.396Z,11.83
2023-02-18T05:31:48.927Z,12.20
2023-02-18T05:34:17.491Z,13.27
2023-02-18T05:36:45.899Z,12.37
2023-02-18T05:39:15.795Z,12.73
2023-02-18T05:41:44.287Z,12.67
2023-02-18T05:44:31.322Z,13.17
2023-02-18T05:47:00.136Z,13.37
2023-02-18T05:49:28.704Z,14.70
2023-02-18T05:51:57.189Z,13.73
2023-02-18T05:54:27.046Z,13.50
2023-02-18T05:56:55.485Z,14.10
2023-02-18T05:59:23.937Z,13.37
2023-02-18T06:01:52.609Z,14.27
2023-02-18T06:04:21.059Z,13.47
2023-02-18T06:06:49.497Z,12.90
2023-02-18T06:09:18.048Z,11.80
2023-02-18T06:11:48.006Z,11.93
2023-02-18T06:14:16.536Z,11.07
2023-02-18T06:16:44.936Z,12.73
2023-02-18T06:19:13.350Z,11.27
2023-02-18T06:21:41.921Z,11.97
2023-02-18T06:24:10.393Z,11.27
2023-02-18T06:26:38.985Z,10.97
2023-02-18T06:29:08.846Z,12.20
2023-02-18T06:31:37.409Z,10.30
2023-02-18T06:34:05.913Z,10.37
2023-02-18T06:36:34.349Z,8.70
2023-02-18T06:39:04.044Z,8.83
2023-02-18T06:41:32.508Z,8.60
2023-02-18T06:44:00.958Z,8.83
2023-02-18T06:46:30.920Z,7.70
2023-02-18T06:49:01.105Z,8.90
2023-02-18T06:51:29.665Z,7.80
2023-02-18T06:53:58.159Z,7.33
2023-02-18T06:56:26.546Z,7.60
2023-02-18T06:58:55.078Z,6.93
2023-02-18T07:01:23.552Z,6.43
2023-02-18T07:03:53.341Z,7.43
2023-02-18T07:06:21.774Z,6.20
2023-02-18T07:08:50.167Z,5.63
2023-02-18T07:11:18.701Z,5.90
2023-02-18T07:13:47.242Z,5.40
2023-02-18T07:16:15.810Z,6.97
2023-02-18T07:18:44.299Z,6.47
2023-02-18T07:21:14.167Z,4.80
2023-02-18T07:23:42.547Z,5.53
2023-02-18T07:26:11.618Z,5.43
2023-02-18T07:28:40.180Z,5.90
2023-02-18T07:31:08.763Z,7.17
2023-02-18T07:33:37.401Z,5.70
2023-02-18T07:36:06.302Z,5.73
2023-02-18T07:38:36.377Z,5.27
2023-02-18T07:41:05.004Z,6.30
2023-02-18T07:43:33.683Z,5.73
2023-02-18T07:46:02.143Z,6.53
2023-02-18T07:48:30.627Z,5.10
2023-02-18T07:50:59.066Z,5.40
2023-02-18T07:53:27.608Z,5.63
2023-02-18T07:56:00.216Z,6.37
2023-02-18T07:58:32.290Z,5.30
2023-02-18T08:01:00.814Z,5.83
2023-02-18T08:03:30.484Z,5.03
2023-02-18T08:05:58.987Z,6.30
2023-02-18T08:08:28.582Z,5.63
2023-02-18T08:11:01.111Z,5.63
2023-02-18T08:13:31.181Z,5.23
2023-02-18T08:15:59.686Z,5.83
2023-02-18T08:18:28.067Z,5.93
2023-02-18T08:20:56.523Z,5.83
2023-02-18T08:23:26.284Z,5.27
2023-02-18T08:25:54.843Z,5.10
2023-02-18T08:28:25.245Z,5.43
2023-02-18T08:30:54.005Z,4.83
2023-02-18T08:33:22.535Z,4.27
2023-02-18T08:35:51.080Z,5.57
2023-02-18T08:38:19.762Z,5.77
2023-02-18T08:40:48.367Z,5.33
2023-02-18T08:43:17.054Z,4.90
2023-02-18T08:45:46.977Z,5.10
2023-02-18T08:48:20.661Z,5.53
2023-02-18T08:50:49.408Z,5.13
2023-02-18T08:53:17.954Z,4.27
2023-02-18T08:55:46.417Z,4.60
2023-02-18T08:58:14.924Z,5.07
2023-02-18T09:00:43.708Z,5.60
2023-02-18T09:03:14.445Z,4.77
2023-02-18T09:05:43.032Z,5.50
2023-02-18T09:08:11.501Z,4.57
2023-02-18T09:10:40.612Z,4.97
2023-02-18T09:13:09.260Z,5.13
2023-02-18T09:15:38.160Z,4.63
2023-02-18T09:18:06.963Z,5.30
2023-02-18T09:20:36.754Z,5.03
2023-02-18T09:23:05.263Z,4.90
2023-02-18T09:25:33.724Z,5.17
2023-02-18T09:28:02.377Z,4.80
2023-02-18T09:30:30.875Z,5.03
2023-02-18T09:32:59.328Z,5.10
2023-02-18T09:35:27.777Z,6.13
2023-02-18T09:37:57.886Z,5.33
2023-02-18T09:40:27.178Z,4.83
2023-02-18T09:42:55.870Z,5.33
2023-02-18T09:45:24.507Z,4.87
2023-02-18T09:47:53.158Z,4.57
2023-02-18T09:50:34.322Z,4.57
2023-02-18T09:53:04.897Z,4.83
2023-02-18T09:55:34.261Z,5.13
2023-02-18T09:58:03.035Z,4.90
2023-02-18T10:00:32.763Z,4.23
2023-02-18T10:03:02.980Z,5.00
2023-02-18T10:05:31.658Z,4.63
2023-02-18T10:08:00.901Z,4.73
2023-02-18T10:10:33.009Z,4.63
2023-02-18T10:13:01.434Z,5.00
2023-02-18T10:15:30.313Z,4.60
2023-02-18T10:17:59.036Z,4.40
2023-02-18T10:20:28.689Z,4.77
2023-02-18T10:22:57.127Z,4.03
2023-02-18T10:25:25.728Z,4.57
2023-02-18T10:27:55.594Z,4.13
2023-02-18T10:30:24.992Z,3.70
2023-02-18T10:32:54.049Z,4.00
2023-02-18T10:35:23.515Z,4.63
2023-02-18T10:37:55.685Z,4.17
2023-02-18T10:40:25.231Z,4.53
2023-02-18T10:43:00.386Z,4.23
2023-02-18T10:45:31.273Z,4.50
2023-02-18T10:48:02.688Z,4.13
2023-02-18T10:50:31.688Z,4.37
2023-02-18T10:53:01.495Z,4.57
2023-02-18T10:55:36.234Z,5.40
2023-02-18T10:58:06.114Z,5.10
2023-02-18T11:00:36.269Z,5.60
2023-02-18T11:03:08.672Z,4.40
2023-02-18T11:05:37.469Z,4.40
2023-02-18T11:08:06.447Z,4.00
2023-02-18T11:10:35.654Z,5.17
2023-02-18T11:13:04.779Z,4.17
2023-02-18T11:15:34.749Z,4.57
2023-02-18T11:18:13.712Z,3.90
2023-02-18T11:20:42.257Z,4.40
2023-02-18T11:23:18.050Z,4.63
2023-02-18T11:25:55.012Z,4.03
2023-02-18T11:28:28.962Z,4.33
2023-02-18T11:31:00.223Z,3.57
2023-02-18T11:33:31.433Z,3.93
2023-02-18T11:36:00.121Z,3.83
2023-02-18T11:38:28.891Z,5.23
2023-02-18T11:40:57.797Z,3.30
2023-02-18T11:43:26.241Z,3.53
2023-02-18T11:46:10.113Z,4.47
2023-02-18T11:48:39.896Z,4.67
2023-02-18T11:51:08.720Z,3.57
2023-02-18T11:53:37.924Z,3.10
2023-02-18T11:56:07.037Z,4.37
2023-02-18T11:58:38.548Z,3.53
2023-02-18T12:01:07.052Z,4.80
2023-02-18T12:03:38.320Z,4.37
2023-02-18T12:06:13.297Z,4.40
2023-02-18T12:08:42.874Z,3.53
2023-02-18T12:11:12.673Z,3.97
2023-02-18T12:13:41.764Z,3.97
2023-02-18T12:16:13.276Z,3.50
2023-02-18T12:18:56.356Z,3.90
2023-02-18T12:21:31.986Z,3.47
2023-02-18T12:24:04.202Z,3.37
2023-02-18T12:26:34.968Z,3.40
2023-02-18T12:29:09.545Z,3.47
2023-02-18T12:31:41.375Z,4.10
2023-02-18T12:34:15.285Z,4.13
2023-02-18T12:36:48.976Z,4.23
2023-02-18T12:39:20.685Z,3.97
2023-02-18T12:42:02.137Z,3.67
2023-02-18T12:44:35.883Z,4.43
2023-02-18T12:47:20.718Z,5.00
2023-02-18T12:49:56.760Z,4.00
2023-02-18T12:52:29.666Z,3.97
2023-02-18T12:55:16.784Z,4.00
2023-02-18T12:57:45.399Z,3.80
2023-02-18T13:00:33.289Z,3.67
2023-02-18T13:03:14.672Z,4.27
2023-02-18T13:05:44.280Z,4.33
2023-02-18T13:08:26.794Z,3.53
2023-02-18T13:11:06.549Z,3.87
2023-02-18T13:13:35.899Z,3.50
2023-02-18T13:16:05.315Z,3.80
2023-02-18T13:18:34.583Z,3.30
2023-02-18T13:21:05.463Z,2.90
2023-02-18T13:23:39.845Z,3.60
2023-02-18T13:26:08.811Z,3.40
2023-02-18T13:28:38.427Z,3.60
2023-02-18T13:31:16.812Z,4.00
2023-02-18T13:33:46.786Z,3.30
2023-02-18T13:36:18.710Z,3.80
2023-02-18T13:38:57.431Z,2.90
2023-02-18T13:41:26.053Z,2.77
2023-02-18T13:43:54.910Z,2.87
2023-02-18T13:46:23.488Z,3.10
2023-02-18T13:48:52.966Z,4.10
2023-02-18T13:51:29.843Z,3.17
2023-02-18T13:54:01.670Z,3.30
2023-02-18T13:56:30.533Z,3.37
2023-02-18T13:59:01.495Z,3.17
2023-02-18T14:01:39.322Z,3.67
2023-02-18T14:04:22.834Z,3.40
2023-02-18T14:07:06.282Z,3.33
2023-02-18T14:09:44.440Z,2.97
2023-02-18T14:12:20.298Z,3.37
2023-02-18T14:14:48.938Z,4.80
2023-02-18T14:17:38.382Z,4.60
2023-02-18T14:20:39.903Z,5.03
2023-02-18T14:23:13.588Z,5.13
2023-02-18T14:25:43.791Z,4.27
2023-02-18T14:28:29.861Z,4.17
2023-02-18T14:30:58.471Z,4.70
2023-02-18T14:33:26.916Z,3.67
2023-02-18T14:35:58.016Z,3.93
2023-02-18T14:38:35.158Z,3.80
2023-02-18T14:41:11.821Z,4.20
2023-02-18T14:43:57.929Z,4.17
2023-02-18T14:46:32.514Z,4.73
2023-02-18T14:49:18.867Z,4.03
2023-02-18T14:51:48.365Z,4.20
2023-02-18T14:54:19.144Z,4.40
2023-02-18T14:56:55.367Z,4.40
2023-02-18T14:59:23.835Z,5.23
2023-02-18T15:01:52.341Z,4.20
2023-02-18T15:04:20.889Z,4.83
2023-02-18T15:06:49.336Z,4.67
2023-02-18T15:09:19.863Z,4.00
2023-02-18T15:11:51.260Z,4.17
2023-02-18T15:14:20.231Z,4.63
2023-02-18T15:16:48.832Z,4.50
2023-02-18T15:19:19.013Z,4.63
2023-02-18T15:21:47.972Z,4.90
2023-02-18T15:24:20.516Z,5.80
2023-02-18T15:26:52.079Z,4.93
2023-02-18T15:29:21.049Z,4.40
2023-02-18T15:31:49.741Z,5.20
2023-02-18T15:34:36.003Z,5.00
2023-02-18T15:37:04.822Z,4.50
2023-02-18T15:39:33.625Z,4.97
2023-02-18T15:42:05.532Z,5.40
2023-02-18T15:44:34.294Z,5.10
2023-02-18T15:47:03.306Z,5.63
2023-02-18T15:49:32.118Z,5.40
2023-02-18T15:52:01.114Z,4.73
2023-02-18T15:54:29.686Z,4.93
2023-02-18T15:56:58.663Z,5.47
2023-02-18T15:59:28.831Z,5.50
2023-02-18T16:01:57.757Z,5.90
2023-02-18T16:04:26.837Z,5.17
2023-02-18T16:06:58.493Z,5.17
2023-02-18T16:09:27.898Z,5.30
2023-02-18T16:11:59.644Z,6.10
2023-02-18T16:14:33.545Z,5.87
2023-02-18T16:17:12.121Z,4.63
2023-02-18T16:19:51.681Z,5.00
2023-02-18T16:22:27.727Z,6.83
2023-02-18T16:24:57.485Z,5.87
2023-02-18T16:27:29.833Z,5.20
2023-02-18T16:30:00.215Z,5.37
2023-02-18T16:32:29.059Z,5.57
2023-02-18T16:34:57.464Z,5.97
2023-02-18T16:37:41.460Z,7.53
2023-02-18T16:40:18.909Z,6.07
2023-02-18T16:42:47.574Z,6.53
2023-02-18T16:45:17.606Z,5.53
2023-02-18T16:47:46.640Z,7.23
2023-02-18T16:50:16.193Z,6.03
2023-02-18T16:52:45.138Z,6.17
2023-02-18T16:55:17.506Z,6.87
2023-02-18T16:57:48.263Z,6.30
2023-02-18T17:00:19.137Z,6.47
2023-02-18T17:02:51.356Z,6.70
2023-02-18T17:05:26.366Z,7.70
2023-02-18T17:07:55.797Z,6.27
2023-02-18T17:10:24.357Z,6.20
2023-02-18T17:12:52.826Z,6.53
2023-02-18T17:15:28.681Z,6.87
2023-02-18T17:17:59.271Z,6.23
2023-02-18T17:20:28.021Z,6.63
2023-02-18T17:22:57.140Z,7.10
2023-02-18T17:25:26.929Z,6.03
2023-02-18T17:27:55.371Z,6.60
2023-02-18T17:30:23.810Z,6.87
2023-02-18T17:32:53.769Z,7.13
2023-02-18T17:35:22.822Z,7.00
2023-02-18T17:37:51.292Z,6.87
2023-02-18T17:40:20.396Z,6.63
2023-02-18T17:42:49.015Z,7.07
2023-02-18T17:45:19.733Z,6.17
2023-02-18T17:47:48.568Z,7.17
2023-02-18T17:50:18.918Z,6.37
2023-02-18T17:52:47.496Z,6.93
2023-02-18T17:55:21.875Z,7.33
2023-02-18T17:57:50.700Z,7.13
2023-02-18T18:00:21.047Z,6.70
2023-02-18T18:02:49.604Z,7.33
2023-02-18T18:05:20.750Z,6.87
2023-02-18T18:07:50.036Z,8.30
2023-02-18T18:10:18.848Z,7.10
2023-02-18T18:12:47.491Z,7.27
2023-02-18T18:15:23.456Z,6.90
2023-02-18T18:17:51.936Z,8.13
2023-02-18T18:20:21.804Z,7.53
2023-02-18T18:22:50.420Z,7.23
2023-02-18T18:25:19.631Z,7.27
2023-02-18T18:27:48.041Z,7.40
2023-02-18T18:30:16.658Z,7.80
2023-02-18T18:32:51.572Z,7.67
2023-02-18T18:35:25.564Z,7.23
2023-02-18T18:37:57.753Z,8.57
2023-02-18T18:40:28.200Z,7.97
2023-02-18T18:42:57.028Z,7.07
2023-02-18T18:45:25.930Z,8.10
2023-02-18T18:47:54.504Z,7.87
2023-02-18T18:50:23.168Z,6.83
2023-02-18T18:52:53.305Z,6.70
2023-02-18T18:55:22.652Z,6.13
2023-02-18T18:57:51.286Z,6.67
2023-02-18T19:00:20.214Z,7.97
2023-02-18T19:02:48.943Z,8.23
2023-02-18T19:05:21.366Z,9.47
2023-02-18T19:07:49.791Z,7.93
2023-02-18T19:10:19.786Z,8.37
2023-02-18T19:12:51.057Z,7.10
2023-02-18T19:15:20.315Z,9.47
2023-02-18T19:17:52.500Z,8.43
2023-02-18T19:20:21.556Z,8.37
2023-02-18T19:22:49.965Z,8.83
2023-02-18T19:25:20.135Z,8.20
2023-02-18T19:27:48.850Z,8.90
2023-02-18T19:30:18.600Z,8.10
2023-02-18T19:32:47.113Z,8.57
2023-02-18T19:35:15.628Z,9.33
2023-02-18T19:37:44.037Z,9.60
2023-02-18T19:40:13.335Z,8.07
2023-02-18T19:42:43.292Z,8.73
2023-02-18T19:45:15.172Z,8.70
2023-02-18T19:47:43.840Z,8.37
2023-02-18T19:50:13.894Z,8.37
2023-02-18T19:52:42.317Z,7.27
2023-02-18T19:55:10.911Z,7.60
2023-02-18T19:57:39.513Z,6.97
2023-02-18T20:00:10.278Z,7.20
2023-02-18T20:02:39.739Z,6.87
2023-02-18T20:05:08.529Z,7.27
2023-02-18T20:07:37.449Z,7.70
2023-02-18T20:10:06.115Z,7.67
2023-02-18T20:12:34.729Z,8.03
2023-02-18T20:15:03.281Z,8.03
2023-02-18T20:17:33.069Z,8.60
2023-02-18T20:20:01.768Z,8.13
2023-02-18T20:22:30.269Z,8.50
2023-02-18T20:24:58.670Z,8.80
2023-02-18T20:27:26.992Z,8.70
2023-02-18T20:29:55.431Z,9.57
2023-02-18T20:32:24.021Z,10.07
2023-02-18T20:34:53.973Z,9.07
2023-02-18T20:37:23.397Z,10.33
2023-02-18T20:39:51.947Z,9.50
2023-02-18T20:42:20.730Z,9.73
2023-02-18T20:44:49.562Z,9.67
2023-02-18T20:47:21.126Z,10.80
2023-02-18T20:49:49.537Z,10.37
2023-02-18T20:52:19.411Z,10.13
2023-02-18T20:54:47.895Z,10.07
2023-02-18T20:57:16.323Z,8.27
2023-02-18T20:59:45.108Z,9.27
2023-02-18T21:02:13.612Z,9.33
2023-02-18T21:04:42.124Z,9.43
2023-02-18T21:07:10.455Z,9.73
2023-02-18T21:09:40.474Z,9.57
2023-02-18T21:12:09.860Z,9.03
2023-02-18T21:14:39.437Z,8.80
2023-02-18T21:17:09.543Z,9.00
2023-02-18T21:19:38.192Z,8.93
2023-02-18T21:22:06.595Z,8.73
2023-02-18T21:24:35.568Z,8.43
2023-02-18T21:27:05.380Z,9.63
2023-02-18T21:29:34.197Z,7.97
2023-02-18T21:32:06.105Z,8.43
2023-02-18T21:34:34.914Z,9.40
2023-02-18T21:37:06.154Z,9.67
2023-02-18T21:39:34.761Z,9.63
2023-02-18T21:42:06.048Z,8.57
2023-02-18T21:44:42.390Z,9.63
2023-02-18T21:47:11.432Z,10.47
2023-02-18T21:49:39.829Z,10.00
2023-02-18T21:52:09.598Z,9.73
2023-02-18T21:54:39.326Z,10.40
2023-02-18T21:57:09.603Z,9.70
2023-02-18T21:59:38.429Z,8.83
2023-02-18T22:02:08.047Z,9.20
2023-02-18T22:04:36.871Z,7.97
2023-02-18T22:07:05.427Z,8.53
2023-02-18T22:09:33.875Z,8.43
2023-02-18T22:12:02.704Z,8.60
2023-02-18T22:14:32.723Z,8.47
2023-02-18T22:17:01.169Z,7.73
2023-02-18T22:19:29.900Z,8.73
2023-02-18T22:21:58.561Z,8.57
2023-02-18T22:24:27.368Z,6.80
2023-02-18T22:26:55.735Z,7.33
2023-02-18T22:29:24.560Z,8.10
2023-02-18T22:31:54.831Z,7.00
2023-02-18T22:34:23.821Z,7.00
2023-02-18T22:36:52.338Z,6.40
2023-02-18T22:39:21.016Z,5.70
2023-02-18T22:41:49.435Z,6.17
2023-02-18T22:44:18.679Z,6.03
2023-02-18T22:46:47.209Z,7.03
2023-02-18T22:49:17.517Z,6.77
2023-02-18T22:51:46.293Z,6.87
2023-02-18T22:54:15.513Z,5.90
2023-02-18T22:56:44.586Z,6.43
2023-02-18T22:59:13.046Z,6.40
2023-02-18T23:01:41.712Z,7.53
2023-02-18T23:04:11.076Z,6.63
2023-02-18T23:06:41.576Z,8.27
2023-02-18T23:09:10.325Z,5.73
2023-02-18T23:11:38.749Z,6.30
2023-02-18T23:14:19.318Z,5.47
2023-02-18T23:17:05.480Z,6.43
2023-02-18T23:19:34.149Z,7.77
2023-02-18T23:22:04.206Z,6.60
2023-02-18T23:24:33.497Z,6.27
2023-02-18T23:27:01.906Z,5.93
2023-02-18T23:29:30.573Z,5.40
2023-02-18T23:31:59.269Z,5.77
2023-02-18T23:34:28.569Z,5.63
2023-02-18T23:36:57.246Z,6.13
2023-02-18T23:39:27.067Z,5.23
2023-02-18T23:41:55.912Z,5.70
2023-02-18T23:44:24.755Z,5.00
2023-02-18T23:46:53.323Z,4.87
2023-02-18T23:49:23.417Z,5.27
2023-02-18T23:51:52.001Z,6.27
2023-02-18T23:54:20.459Z,5.73
2023-02-18T23:56:50.350Z,5.27
2023-02-18T23:59:18.756Z,5.97
